Accueil
METAR-TAF:

METAR-TAF

Aéroports :

Aéroport civil d'Amman

Amman, Jordanie

latitude: 31-59N, longitude: 035-59E, altitude: 767 m

Observation

Le bulletin a été fait il y a 53 minutes, à 11:00 UTC
Vent 3 kt de nord/nord-ouest
Température 17°C
Humidité 34%
Pression 1023 hPa
Visibilité: 6000 m
Quelques nuages à une hauteur de 3000 ft

METAR: OJAM 231100Z 34003KT 6000 FEW030 17/01 Q1023 NOSIG

Heure: 14:53 (11:53 UTC)

Prévision

Le bulletin a été fait il y a 53 minutes, à 11:00 UTC
Prévision valable du 23 à 12 UTC au 24 à 18 UTC
Vent 5 kt de ouest/nord-ouest
Visibilité: 6000 m
Temporairement
du 24 à 02 UTC au 24 à 06 UTC
Vent 1 kt de direction variable
Visibilité: 4000 m
brume sèche
Evoluant progressivement
du 24 à 06 UTC au 24 à 08 UTC
Vent 6 kt de est/sud-est
Visibilité: 5000 m
brume sèche

TAF: OJAM 231100Z 2312/2418 30005KT 6000 NSC TEMPO 2402/2406 VRB01KT 4000 HZ BECMG 2406/2408 11006KT 5000 HZ

Observations et prévisions météorologiques de plus de 4000 aéroports (messages METAR et TAF).

Les stations disponibles sont représentées par des disques jaunes et rouges sur la carte.

Passer la souris dessus pour voir le nom de la station.

Cliquer dessus pour voir les observations et prévisions météorologiques.

Pour changer de carte: cliquez sur les boutons verts avec une croix noire pour zoomer, sur le bouton vert avec un tiret pour effectuer un zoom arrière, ou sur les flèches vertes pour les cartes adjacentes.


METAR-TAF: